Terminal Aerodrome Forecast
Issued by NWS Duluth, MN

Home | Current Version | Previous Version | Text Only | Print | Product List | Glossary On
Versions: 1 2 3 4 5 6 7 8 9 10 11 12 13 14 15 16 17 18 19 20 21 22 23 24 25 26 27 28 29 30 31 32
000
FTUS43 KDLH 051425 AAA
TAFINL
TAF AMD
KINL 051425Z 0514/0612 20008KT 5SM HZ FU BKN070
     FM051600 20008KT 6SM FU SCT050 BKN150
     FM052000 20007KT 5SM -TSRA BKN040CB
     FM060200 22004KT 4SM RA BR OVC025
     FM060900 34005KT P6SM OVC100=

USA.gov is the U.S. government's official web portal to all federal, state and local government web resources and services.